sensor_id;sensor_type;location;lat;lon;timestamp;P1;durP1;ratioP1;P2;durP2;ratioP2
41434;SDS011;27177;22.262;114.192;2023-02-01T00:00:59;26.55;;;9.80;;
41434;SDS011;27177;22.262;114.192;2023-02-01T00:05:57;25.13;;;9.73;;
41434;SDS011;27177;22.262;114.192;2023-02-01T00:08:25;18.55;;;9.50;;
41434;SDS011;27177;22.262;114.192;2023-02-01T00:11:01;22.88;;;8.93;;
41434;SDS011;27177;22.262;114.192;2023-02-01T00:13:29;25.40;;;9.18;;
41434;SDS011;27177;22.262;114.192;2023-02-01T00:16:08;26.38;;;9.45;;
41434;SDS011;27177;22.262;114.192;2023-02-01T00:21:13;25.17;;;9.75;;
41434;SDS011;27177;22.262;114.192;2023-02-01T00:23:44;21.40;;;10.00;;
41434;SDS011;27177;22.262;114.192;2023-02-01T00:28:57;27.88;;;9.50;;
41434;SDS011;27177;22.262;114.192;2023-02-01T00:34:00;20.67;;;8.25;;
41434;SDS011;27177;22.262;114.192;2023-02-01T00:39:02;23.27;;;10.35;;
41434;SDS011;27177;22.262;114.192;2023-02-01T00:41:28;33.00;;;11.32;;
41434;SDS011;27177;22.262;114.192;2023-02-01T00:43:55;28.27;;;9.68;;
41434;SDS011;27177;22.262;114.192;2023-02-01T00:46:22;33.70;;;10.10;;
41434;SDS011;27177;22.262;114.192;2023-02-01T00:48:49;24.00;;;10.52;;
41434;SDS011;27177;22.262;114.192;2023-02-01T00:51:20;19.77;;;8.20;;
41434;SDS011;27177;22.262;114.192;2023-02-01T00:53:49;24.08;;;9.27;;
41434;SDS011;27177;22.262;114.192;2023-02-01T00:56:16;18.98;;;8.77;;
41434;SDS011;27177;22.262;114.192;2023-02-01T01:02:10;19.48;;;8.18;;
41434;SDS011;27177;22.262;114.192;2023-02-01T01:08:06;27.52;;;9.18;;
41434;SDS011;27177;22.262;114.192;2023-02-01T01:10:33;17.15;;;7.40;;
41434;SDS011;27177;22.262;114.192;2023-02-01T01:13:00;18.60;;;7.32;;
41434;SDS011;27177;22.262;114.192;2023-02-01T01:15:26;22.23;;;7.18;;
41434;SDS011;27177;22.262;114.192;2023-02-01T01:27:34;19.42;;;7.43;;
41434;SDS011;27177;22.262;114.192;2023-02-01T01:36:34;17.95;;;7.93;;
41434;SDS011;27177;22.262;114.192;2023-02-01T01:39:01;17.50;;;6.45;;
41434;SDS011;27177;22.262;114.192;2023-02-01T01:41:29;21.15;;;7.43;;
41434;SDS011;27177;22.262;114.192;2023-02-01T01:43:59;15.90;;;6.95;;
41434;SDS011;27177;22.262;114.192;2023-02-01T01:46:51;13.70;;;6.38;;
41434;SDS011;27177;22.262;114.192;2023-02-01T01:52:46;18.55;;;7.55;;
41434;SDS011;27177;22.262;114.192;2023-02-01T01:55:37;14.60;;;6.93;;
41434;SDS011;27177;22.262;114.192;2023-02-01T01:58:28;23.35;;;7.65;;
41434;SDS011;27177;22.262;114.192;2023-02-01T02:10:28;16.85;;;7.22;;
41434;SDS011;27177;22.262;114.192;2023-02-01T02:34:28;24.10;;;12.02;;
41434;SDS011;27177;22.262;114.192;2023-02-01T02:37:11;21.25;;;7.95;;
41434;SDS011;27177;22.262;114.192;2023-02-01T02:42:25;18.35;;;6.50;;
41434;SDS011;27177;22.262;114.192;2023-02-01T02:57:57;14.95;;;6.25;;
41434;SDS011;27177;22.262;114.192;2023-02-01T03:00:43;16.42;;;6.47;;
41434;SDS011;27177;22.262;114.192;2023-02-01T03:03:29;11.52;;;6.00;;
41434;SDS011;27177;22.262;114.192;2023-02-01T03:06:15;23.77;;;5.72;;
41434;SDS011;27177;22.262;114.192;2023-02-01T03:08:44;17.85;;;5.50;;
41434;SDS011;27177;22.262;114.192;2023-02-01T03:11:14;15.43;;;5.03;;
41434;SDS011;27177;22.262;114.192;2023-02-01T03:13:51;13.02;;;5.43;;
41434;SDS011;27177;22.262;114.192;2023-02-01T03:24:25;12.90;;;4.93;;
41434;SDS011;27177;22.262;114.192;2023-02-01T03:27:12;16.35;;;6.10;;
41434;SDS011;27177;22.262;114.192;2023-02-01T03:29:49;15.88;;;5.03;;
41434;SDS011;27177;22.262;114.192;2023-02-01T03:32:17;12.10;;;5.47;;
41434;SDS011;27177;22.262;114.192;2023-02-01T03:34:44;13.40;;;4.57;;
41434;SDS011;27177;22.262;114.192;2023-02-01T03:37:13;11.73;;;5.45;;
41434;SDS011;27177;22.262;114.192;2023-02-01T03:40:06;13.57;;;4.82;;
41434;SDS011;27177;22.262;114.192;2023-02-01T03:46:04;13.80;;;4.93;;
41434;SDS011;27177;22.262;114.192;2023-02-01T03:48:35;11.00;;;4.70;;
41434;SDS011;27177;22.262;114.192;2023-02-01T03:51:03;15.55;;;5.88;;
41434;SDS011;27177;22.262;114.192;2023-02-01T03:53:32;18.40;;;6.32;;
41434;SDS011;27177;22.262;114.192;2023-02-01T03:56:02;12.73;;;4.40;;
41434;SDS011;27177;22.262;114.192;2023-02-01T03:58:29;21.20;;;5.20;;
41434;SDS011;27177;22.262;114.192;2023-02-01T04:00:57;11.82;;;4.38;;
41434;SDS011;27177;22.262;114.192;2023-02-01T04:03:25;9.02;;;4.38;;
41434;SDS011;27177;22.262;114.192;2023-02-01T04:05:53;11.55;;;3.80;;
41434;SDS011;27177;22.262;114.192;2023-02-01T04:08:20;12.40;;;4.35;;
41434;SDS011;27177;22.262;114.192;2023-02-01T04:10:47;12.98;;;4.15;;
41434;SDS011;27177;22.262;114.192;2023-02-01T04:13:14;10.57;;;4.22;;
41434;SDS011;27177;22.262;114.192;2023-02-01T04:15:41;11.40;;;4.30;;
41434;SDS011;27177;22.262;114.192;2023-02-01T04:18:08;10.82;;;3.97;;
41434;SDS011;27177;22.262;114.192;2023-02-01T04:20:35;12.15;;;4.78;;
41434;SDS011;27177;22.262;114.192;2023-02-01T04:23:02;19.05;;;5.53;;
41434;SDS011;27177;22.262;114.192;2023-02-01T04:25:29;11.57;;;4.60;;
41434;SDS011;27177;22.262;114.192;2023-02-01T04:27:56;17.63;;;4.97;;
41434;SDS011;27177;22.262;114.192;2023-02-01T04:30:25;13.50;;;4.78;;
41434;SDS011;27177;22.262;114.192;2023-02-01T04:32:51;14.98;;;4.82;;
41434;SDS011;27177;22.262;114.192;2023-02-01T04:35:18;20.48;;;5.80;;
41434;SDS011;27177;22.262;114.192;2023-02-01T04:37:45;15.80;;;5.68;;
41434;SDS011;27177;22.262;114.192;2023-02-01T04:40:12;10.73;;;4.63;;
41434;SDS011;27177;22.262;114.192;2023-02-01T04:42:39;12.65;;;5.35;;
41434;SDS011;27177;22.262;114.192;2023-02-01T04:45:05;13.20;;;5.22;;
41434;SDS011;27177;22.262;114.192;2023-02-01T04:47:34;15.20;;;5.13;;
41434;SDS011;27177;22.262;114.192;2023-02-01T04:50:01;13.68;;;6.07;;
41434;SDS011;27177;22.262;114.192;2023-02-01T04:52:28;18.52;;;5.55;;
41434;SDS011;27177;22.262;114.192;2023-02-01T04:54:54;11.60;;;5.13;;
41434;SDS011;27177;22.262;114.192;2023-02-01T04:57:23;10.55;;;5.07;;
41434;SDS011;27177;22.262;114.192;2023-02-01T04:59:49;14.77;;;4.78;;
41434;SDS011;27177;22.262;114.192;2023-02-01T05:02:21;11.02;;;4.70;;
41434;SDS011;27177;22.262;114.192;2023-02-01T05:10:48;7.95;;;4.00;;
41434;SDS011;27177;22.262;114.192;2023-02-01T05:17:02;12.13;;;4.53;;
41434;SDS011;27177;22.262;114.192;2023-02-01T05:19:28;8.70;;;3.95;;
41434;SDS011;27177;22.262;114.192;2023-02-01T05:21:55;10.02;;;4.60;;
41434;SDS011;27177;22.262;114.192;2023-02-01T05:24:22;12.80;;;5.15;;
41434;SDS011;27177;22.262;114.192;2023-02-01T05:26:49;12.32;;;4.05;;
41434;SDS011;27177;22.262;114.192;2023-02-01T05:29:16;8.05;;;3.30;;
41434;SDS011;27177;22.262;114.192;2023-02-01T05:31:46;11.32;;;3.90;;
41434;SDS011;27177;22.262;114.192;2023-02-01T05:34:14;10.32;;;4.00;;
41434;SDS011;27177;22.262;114.192;2023-02-01T05:36:40;8.43;;;3.70;;
41434;SDS011;27177;22.262;114.192;2023-02-01T05:39:08;10.05;;;4.57;;
41434;SDS011;27177;22.262;114.192;2023-02-01T05:41:35;9.38;;;3.92;;
41434;SDS011;27177;22.262;114.192;2023-02-01T05:44:02;9.88;;;3.60;;
41434;SDS011;27177;22.262;114.192;2023-02-01T05:46:33;15.98;;;5.93;;
41434;SDS011;27177;22.262;114.192;2023-02-01T05:49:00;7.75;;;3.03;;
41434;SDS011;27177;22.262;114.192;2023-02-01T05:51:27;14.68;;;4.40;;
41434;SDS011;27177;22.262;114.192;2023-02-01T05:53:53;11.50;;;3.90;;
41434;SDS011;27177;22.262;114.192;2023-02-01T05:56:20;10.25;;;3.33;;
41434;SDS011;27177;22.262;114.192;2023-02-01T05:58:47;10.43;;;4.07;;
41434;SDS011;27177;22.262;114.192;2023-02-01T06:01:14;9.88;;;3.83;;
41434;SDS011;27177;22.262;114.192;2023-02-01T06:03:40;9.13;;;3.78;;
41434;SDS011;27177;22.262;114.192;2023-02-01T06:06:07;13.70;;;4.30;;
41434;SDS011;27177;22.262;114.192;2023-02-01T06:08:34;11.90;;;4.90;;
41434;SDS011;27177;22.262;114.192;2023-02-01T06:11:04;10.88;;;4.05;;
41434;SDS011;27177;22.262;114.192;2023-02-01T06:13:32;11.80;;;4.17;;
41434;SDS011;27177;22.262;114.192;2023-02-01T06:15:59;10.95;;;3.95;;
41434;SDS011;27177;22.262;114.192;2023-02-01T06:18:26;13.45;;;4.18;;
41434;SDS011;27177;22.262;114.192;2023-02-01T06:20:55;9.75;;;4.05;;
41434;SDS011;27177;22.262;114.192;2023-02-01T06:23:25;10.18;;;4.07;;
41434;SDS011;27177;22.262;114.192;2023-02-01T06:25:53;12.48;;;4.13;;
41434;SDS011;27177;22.262;114.192;2023-02-01T06:28:26;8.93;;;3.50;;
41434;SDS011;27177;22.262;114.192;2023-02-01T06:30:54;9.85;;;4.20;;
41434;SDS011;27177;22.262;114.192;2023-02-01T06:33:21;7.60;;;3.55;;
41434;SDS011;27177;22.262;114.192;2023-02-01T06:35:47;11.02;;;3.42;;
41434;SDS011;27177;22.262;114.192;2023-02-01T06:38:14;7.53;;;3.58;;
41434;SDS011;27177;22.262;114.192;2023-02-01T06:40:41;9.07;;;4.13;;
41434;SDS011;27177;22.262;114.192;2023-02-01T06:43:09;6.88;;;3.40;;
41434;SDS011;27177;22.262;114.192;2023-02-01T06:45:35;14.68;;;4.40;;
41434;SDS011;27177;22.262;114.192;2023-02-01T06:48:02;14.15;;;5.10;;
41434;SDS011;27177;22.262;114.192;2023-02-01T06:50:29;6.78;;;3.72;;
41434;SDS011;27177;22.262;114.192;2023-02-01T06:52:56;9.80;;;4.47;;
41434;SDS011;27177;22.262;114.192;2023-02-01T06:55:22;10.23;;;4.00;;
41434;SDS011;27177;22.262;114.192;2023-02-01T06:57:52;10.65;;;3.83;;
41434;SDS011;27177;22.262;114.192;2023-02-01T07:00:20;10.57;;;4.07;;
41434;SDS011;27177;22.262;114.192;2023-02-01T07:02:48;9.27;;;3.70;;
41434;SDS011;27177;22.262;114.192;2023-02-01T07:05:15;9.63;;;3.90;;
41434;SDS011;27177;22.262;114.192;2023-02-01T07:07:42;11.80;;;3.75;;
41434;SDS011;27177;22.262;114.192;2023-02-01T07:10:09;9.48;;;3.55;;
41434;SDS011;27177;22.262;114.192;2023-02-01T07:12:36;12.20;;;4.05;;
41434;SDS011;27177;22.262;114.192;2023-02-01T07:15:03;8.30;;;4.32;;
41434;SDS011;27177;22.262;114.192;2023-02-01T07:17:31;8.75;;;3.35;;
41434;SDS011;27177;22.262;114.192;2023-02-01T07:19:57;11.93;;;4.03;;
41434;SDS011;27177;22.262;114.192;2023-02-01T07:22:25;8.35;;;3.45;;
41434;SDS011;27177;22.262;114.192;2023-02-01T07:24:52;11.50;;;4.20;;
41434;SDS011;27177;22.262;114.192;2023-02-01T07:27:19;8.80;;;3.92;;
41434;SDS011;27177;22.262;114.192;2023-02-01T07:29:45;8.73;;;3.25;;
41434;SDS011;27177;22.262;114.192;2023-02-01T07:32:12;8.10;;;3.45;;
41434;SDS011;27177;22.262;114.192;2023-02-01T07:34:43;11.40;;;3.97;;
41434;SDS011;27177;22.262;114.192;2023-02-01T07:37:10;9.63;;;4.07;;
41434;SDS011;27177;22.262;114.192;2023-02-01T07:39:37;13.27;;;4.03;;
41434;SDS011;27177;22.262;114.192;2023-02-01T07:42:04;8.98;;;4.07;;
41434;SDS011;27177;22.262;114.192;2023-02-01T07:44:32;7.63;;;3.63;;
41434;SDS011;27177;22.262;114.192;2023-02-01T07:46:59;13.32;;;4.22;;
41434;SDS011;27177;22.262;114.192;2023-02-01T07:49:25;10.25;;;4.57;;
41434;SDS011;27177;22.262;114.192;2023-02-01T07:51:52;11.73;;;5.05;;
41434;SDS011;27177;22.262;114.192;2023-02-01T07:54:19;9.35;;;3.63;;
41434;SDS011;27177;22.262;114.192;2023-02-01T07:56:45;8.32;;;3.50;;
41434;SDS011;27177;22.262;114.192;2023-02-01T07:59:12;9.13;;;3.70;;
41434;SDS011;27177;22.262;114.192;2023-02-01T08:01:40;9.32;;;3.72;;
41434;SDS011;27177;22.262;114.192;2023-02-01T08:04:08;10.77;;;3.95;;
41434;SDS011;27177;22.262;114.192;2023-02-01T08:06:38;11.30;;;4.13;;
41434;SDS011;27177;22.262;114.192;2023-02-01T08:09:05;9.35;;;4.45;;
41434;SDS011;27177;22.262;114.192;2023-02-01T08:11:36;9.35;;;4.30;;
41434;SDS011;27177;22.262;114.192;2023-02-01T08:14:03;8.68;;;3.40;;
41434;SDS011;27177;22.262;114.192;2023-02-01T08:16:31;8.88;;;3.50;;
41434;SDS011;27177;22.262;114.192;2023-02-01T08:19:00;11.35;;;3.38;;
41434;SDS011;27177;22.262;114.192;2023-02-01T08:21:27;13.07;;;3.83;;
41434;SDS011;27177;22.262;114.192;2023-02-01T08:24:05;9.50;;;3.63;;
41434;SDS011;27177;22.262;114.192;2023-02-01T08:26:33;11.77;;;3.55;;
41434;SDS011;27177;22.262;114.192;2023-02-01T08:29:01;9.35;;;3.53;;
41434;SDS011;27177;22.262;114.192;2023-02-01T08:31:30;8.60;;;4.68;;
41434;SDS011;27177;22.262;114.192;2023-02-01T08:33:57;9.10;;;4.00;;
41434;SDS011;27177;22.262;114.192;2023-02-01T08:36:26;7.97;;;3.72;;
41434;SDS011;27177;22.262;114.192;2023-02-01T08:38:55;8.95;;;3.90;;
41434;SDS011;27177;22.262;114.192;2023-02-01T08:41:23;10.52;;;3.88;;
41434;SDS011;27177;22.262;114.192;2023-02-01T08:43:52;10.48;;;3.80;;
41434;SDS011;27177;22.262;114.192;2023-02-01T08:46:19;11.25;;;4.13;;
41434;SDS011;27177;22.262;114.192;2023-02-01T08:48:47;6.93;;;3.30;;
41434;SDS011;27177;22.262;114.192;2023-02-01T08:51:15;11.95;;;3.75;;
41434;SDS011;27177;22.262;114.192;2023-02-01T08:53:44;8.82;;;2.95;;
41434;SDS011;27177;22.262;114.192;2023-02-01T08:56:11;11.10;;;3.85;;
41434;SDS011;27177;22.262;114.192;2023-02-01T08:58:55;7.90;;;2.95;;
41434;SDS011;27177;22.262;114.192;2023-02-01T09:01:22;8.75;;;3.67;;
41434;SDS011;27177;22.262;114.192;2023-02-01T09:03:49;9.60;;;3.38;;
41434;SDS011;27177;22.262;114.192;2023-02-01T09:06:16;12.57;;;3.53;;
41434;SDS011;27177;22.262;114.192;2023-02-01T09:08:43;9.65;;;4.35;;
41434;SDS011;27177;22.262;114.192;2023-02-01T09:11:12;9.25;;;3.47;;
41434;SDS011;27177;22.262;114.192;2023-02-01T09:13:41;10.05;;;3.45;;
41434;SDS011;27177;22.262;114.192;2023-02-01T09:16:08;6.85;;;3.70;;
41434;SDS011;27177;22.262;114.192;2023-02-01T09:18:35;10.45;;;3.50;;
41434;SDS011;27177;22.262;114.192;2023-02-01T09:21:05;6.70;;;2.72;;
41434;SDS011;27177;22.262;114.192;2023-02-01T09:23:33;12.98;;;3.97;;
41434;SDS011;27177;22.262;114.192;2023-02-01T09:26:01;12.18;;;3.53;;
41434;SDS011;27177;22.262;114.192;2023-02-01T09:28:29;9.77;;;3.60;;
41434;SDS011;27177;22.262;114.192;2023-02-01T09:30:56;9.45;;;3.95;;
41434;SDS011;27177;22.262;114.192;2023-02-01T09:33:27;7.93;;;3.75;;
41434;SDS011;27177;22.262;114.192;2023-02-01T09:35:57;10.75;;;3.53;;
41434;SDS011;27177;22.262;114.192;2023-02-01T09:40:53;11.10;;;3.60;;
41434;SDS011;27177;22.262;114.192;2023-02-01T09:48:20;10.32;;;4.22;;
41434;SDS011;27177;22.262;114.192;2023-02-01T09:50:56;9.80;;;3.72;;
41434;SDS011;27177;22.262;114.192;2023-02-01T09:53:27;11.38;;;4.13;;
41434;SDS011;27177;22.262;114.192;2023-02-01T09:56:18;8.00;;;4.03;;
41434;SDS011;27177;22.262;114.192;2023-02-01T09:58:53;11.43;;;3.47;;
41434;SDS011;27177;22.262;114.192;2023-02-01T10:01:30;8.50;;;3.65;;
41434;SDS011;27177;22.262;114.192;2023-02-01T10:04:01;14.57;;;4.95;;
41434;SDS011;27177;22.262;114.192;2023-02-01T10:06:42;10.77;;;4.45;;
41434;SDS011;27177;22.262;114.192;2023-02-01T10:09:15;12.85;;;4.18;;
41434;SDS011;27177;22.262;114.192;2023-02-01T10:14:56;15.75;;;4.53;;
41434;SDS011;27177;22.262;114.192;2023-02-01T10:26:25;7.63;;;3.70;;
41434;SDS011;27177;22.262;114.192;2023-02-01T10:28:57;9.18;;;4.15;;
41434;SDS011;27177;22.262;114.192;2023-02-01T10:31:26;14.10;;;4.65;;
41434;SDS011;27177;22.262;114.192;2023-02-01T10:33:59;11.77;;;5.10;;
41434;SDS011;27177;22.262;114.192;2023-02-01T10:36:36;15.25;;;5.22;;
41434;SDS011;27177;22.262;114.192;2023-02-01T10:41:42;11.35;;;5.35;;
41434;SDS011;27177;22.262;114.192;2023-02-01T10:44:10;11.43;;;5.80;;
41434;SDS011;27177;22.262;114.192;2023-02-01T10:46:39;14.48;;;5.65;;
41434;SDS011;27177;22.262;114.192;2023-02-01T10:52:43;14.25;;;6.97;;
41434;SDS011;27177;22.262;114.192;2023-02-01T10:55:26;10.65;;;5.38;;
41434;SDS011;27177;22.262;114.192;2023-02-01T10:58:06;13.20;;;5.18;;
41434;SDS011;27177;22.262;114.192;2023-02-01T11:00:52;9.82;;;5.40;;
41434;SDS011;27177;22.262;114.192;2023-02-01T11:03:34;13.55;;;5.13;;
41434;SDS011;27177;22.262;114.192;2023-02-01T11:08:54;13.70;;;5.45;;
41434;SDS011;27177;22.262;114.192;2023-02-01T11:11:27;10.70;;;5.18;;
41434;SDS011;27177;22.262;114.192;2023-02-01T11:13:56;9.90;;;5.20;;
41434;SDS011;27177;22.262;114.192;2023-02-01T11:16:35;9.43;;;5.03;;
41434;SDS011;27177;22.262;114.192;2023-02-01T11:19:03;10.10;;;5.20;;
41434;SDS011;27177;22.262;114.192;2023-02-01T11:21:31;9.32;;;4.90;;
41434;SDS011;27177;22.262;114.192;2023-02-01T11:24:03;12.73;;;5.45;;
41434;SDS011;27177;22.262;114.192;2023-02-01T11:26:32;9.80;;;5.43;;
41434;SDS011;27177;22.262;114.192;2023-02-01T11:29:00;13.05;;;5.88;;
41434;SDS011;27177;22.262;114.192;2023-02-01T11:31:35;9.13;;;4.60;;
41434;SDS011;27177;22.262;114.192;2023-02-01T11:37:42;8.93;;;5.60;;
41434;SDS011;27177;22.262;114.192;2023-02-01T11:45:39;13.63;;;5.88;;
41434;SDS011;27177;22.262;114.192;2023-02-01T11:48:09;16.88;;;6.60;;
41434;SDS011;27177;22.262;114.192;2023-02-01T11:51:18;9.93;;;5.97;;
41434;SDS011;27177;22.262;114.192;2023-02-01T11:56:37;16.13;;;6.63;;
41434;SDS011;27177;22.262;114.192;2023-02-01T11:59:36;12.90;;;6.32;;
41434;SDS011;27177;22.262;114.192;2023-02-01T12:38:27;14.40;;;7.90;;
41434;SDS011;27177;22.262;114.192;2023-02-01T12:44:01;12.27;;;7.15;;
41434;SDS011;27177;22.262;114.192;2023-02-01T12:51:36;12.73;;;8.05;;
41434;SDS011;27177;22.262;114.192;2023-02-01T12:57:01;16.92;;;8.05;;
41434;SDS011;27177;22.262;114.192;2023-02-01T13:05:17;13.23;;;8.00;;
41434;SDS011;27177;22.262;114.192;2023-02-01T13:10:32;12.38;;;7.97;;
41434;SDS011;27177;22.262;114.192;2023-02-01T13:13:19;12.50;;;7.07;;
41434;SDS011;27177;22.262;114.192;2023-02-01T13:18:37;11.18;;;7.20;;
41434;SDS011;27177;22.262;114.192;2023-02-01T13:27:30;13.10;;;8.65;;
41434;SDS011;27177;22.262;114.192;2023-02-01T13:43:53;15.10;;;7.65;;
41434;SDS011;27177;22.262;114.192;2023-02-01T13:46:25;13.52;;;6.93;;
41434;SDS011;27177;22.262;114.192;2023-02-01T13:48:54;13.02;;;7.43;;
41434;SDS011;27177;22.262;114.192;2023-02-01T13:51:41;11.13;;;7.10;;
41434;SDS011;27177;22.262;114.192;2023-02-01T13:54:30;17.40;;;8.02;;
41434;SDS011;27177;22.262;114.192;2023-02-01T14:05:04;14.20;;;7.38;;
41434;SDS011;27177;22.262;114.192;2023-02-01T14:08:02;17.38;;;9.35;;
41434;SDS011;27177;22.262;114.192;2023-02-01T14:10:49;15.13;;;8.70;;
41434;SDS011;27177;22.262;114.192;2023-02-01T14:21:13;16.55;;;7.85;;
41434;SDS011;27177;22.262;114.192;2023-02-01T14:23:54;13.82;;;7.03;;
41434;SDS011;27177;22.262;114.192;2023-02-01T14:42:28;18.52;;;8.93;;
41434;SDS011;27177;22.262;114.192;2023-02-01T14:58:28;11.52;;;7.40;;
41434;SDS011;27177;22.262;114.192;2023-02-01T15:01:00;15.07;;;7.15;;
41434;SDS011;27177;22.262;114.192;2023-02-01T15:06:33;12.52;;;7.32;;
41434;SDS011;27177;22.262;114.192;2023-02-01T15:11:56;13.32;;;7.40;;
41434;SDS011;27177;22.262;114.192;2023-02-01T15:14:34;13.25;;;6.80;;
41434;SDS011;27177;22.262;114.192;2023-02-01T15:17:38;12.23;;;7.35;;
41434;SDS011;27177;22.262;114.192;2023-02-01T15:20:00;11.45;;;7.43;;
41434;SDS011;27177;22.262;114.192;2023-02-01T15:22:29;11.05;;;7.22;;
41434;SDS011;27177;22.262;114.192;2023-02-01T15:25:00;12.43;;;7.28;;
41434;SDS011;27177;22.262;114.192;2023-02-01T15:27:28;18.08;;;7.63;;
41434;SDS011;27177;22.262;114.192;2023-02-01T15:33:04;11.88;;;6.53;;
41434;SDS011;27177;22.262;114.192;2023-02-01T15:35:44;10.63;;;6.18;;
41434;SDS011;27177;22.262;114.192;2023-02-01T15:38:19;15.13;;;8.00;;
41434;SDS011;27177;22.262;114.192;2023-02-01T15:40:56;16.13;;;7.30;;
41434;SDS011;27177;22.262;114.192;2023-02-01T15:43:27;11.02;;;6.07;;
41434;SDS011;27177;22.262;114.192;2023-02-01T15:45:56;13.50;;;6.82;;
41434;SDS011;27177;22.262;114.192;2023-02-01T15:48:31;11.50;;;7.13;;
41434;SDS011;27177;22.262;114.192;2023-02-01T15:51:03;11.90;;;6.93;;
41434;SDS011;27177;22.262;114.192;2023-02-01T15:53:31;13.52;;;7.03;;
41434;SDS011;27177;22.262;114.192;2023-02-01T15:56:00;10.57;;;7.30;;
41434;SDS011;27177;22.262;114.192;2023-02-01T15:58:29;15.93;;;7.25;;
41434;SDS011;27177;22.262;114.192;2023-02-01T16:01:01;13.07;;;7.13;;
41434;SDS011;27177;22.262;114.192;2023-02-01T16:06:02;10.40;;;6.45;;
41434;SDS011;27177;22.262;114.192;2023-02-01T16:08:34;13.88;;;7.63;;
41434;SDS011;27177;22.262;114.192;2023-02-01T16:13:35;16.73;;;8.50;;
41434;SDS011;27177;22.262;114.192;2023-02-01T16:16:02;12.80;;;7.38;;
41434;SDS011;27177;22.262;114.192;2023-02-01T16:18:33;15.75;;;8.07;;
41434;SDS011;27177;22.262;114.192;2023-02-01T16:20:59;11.95;;;7.15;;
41434;SDS011;27177;22.262;114.192;2023-02-01T16:23:27;11.65;;;7.10;;
41434;SDS011;27177;22.262;114.192;2023-02-01T16:25:54;15.40;;;7.47;;
41434;SDS011;27177;22.262;114.192;2023-02-01T16:28:21;12.80;;;7.65;;
41434;SDS011;27177;22.262;114.192;2023-02-01T16:30:48;11.80;;;7.25;;
41434;SDS011;27177;22.262;114.192;2023-02-01T16:33:16;14.70;;;6.82;;
41434;SDS011;27177;22.262;114.192;2023-02-01T16:35:47;13.45;;;7.03;;
41434;SDS011;27177;22.262;114.192;2023-02-01T16:38:15;14.65;;;7.35;;
41434;SDS011;27177;22.262;114.192;2023-02-01T16:40:48;11.00;;;6.82;;
41434;SDS011;27177;22.262;114.192;2023-02-01T16:43:16;12.35;;;6.90;;
41434;SDS011;27177;22.262;114.192;2023-02-01T16:45:46;9.60;;;6.15;;
41434;SDS011;27177;22.262;114.192;2023-02-01T16:48:35;14.77;;;7.32;;
41434;SDS011;27177;22.262;114.192;2023-02-01T16:51:02;17.08;;;7.60;;
41434;SDS011;27177;22.262;114.192;2023-02-01T16:53:34;13.10;;;7.60;;
41434;SDS011;27177;22.262;114.192;2023-02-01T16:56:00;15.60;;;8.57;;
41434;SDS011;27177;22.262;114.192;2023-02-01T16:58:30;18.65;;;9.57;;
41434;SDS011;27177;22.262;114.192;2023-02-01T17:00:57;15.55;;;8.20;;
41434;SDS011;27177;22.262;114.192;2023-02-01T17:03:23;12.27;;;8.32;;
41434;SDS011;27177;22.262;114.192;2023-02-01T17:05:54;19.33;;;9.82;;
41434;SDS011;27177;22.262;114.192;2023-02-01T17:08:29;16.58;;;9.60;;
41434;SDS011;27177;22.262;114.192;2023-02-01T17:11:07;16.02;;;8.23;;
41434;SDS011;27177;22.262;114.192;2023-02-01T17:13:35;21.80;;;8.95;;
41434;SDS011;27177;22.262;114.192;2023-02-01T17:16:04;20.67;;;8.32;;
41434;SDS011;27177;22.262;114.192;2023-02-01T17:19:02;14.88;;;7.82;;
41434;SDS011;27177;22.262;114.192;2023-02-01T17:21:42;18.35;;;10.65;;
41434;SDS011;27177;22.262;114.192;2023-02-01T17:24:15;16.67;;;8.45;;
41434;SDS011;27177;22.262;114.192;2023-02-01T17:26:44;14.02;;;7.95;;
41434;SDS011;27177;22.262;114.192;2023-02-01T17:29:11;20.90;;;9.10;;
41434;SDS011;27177;22.262;114.192;2023-02-01T17:31:39;18.08;;;8.27;;
41434;SDS011;27177;22.262;114.192;2023-02-01T17:34:12;12.77;;;7.75;;
41434;SDS011;27177;22.262;114.192;2023-02-01T17:36:44;14.65;;;8.43;;
41434;SDS011;27177;22.262;114.192;2023-02-01T17:39:12;12.55;;;8.18;;
41434;SDS011;27177;22.262;114.192;2023-02-01T17:41:59;10.55;;;7.25;;
41434;SDS011;27177;22.262;114.192;2023-02-01T17:44:27;12.43;;;8.27;;
41434;SDS011;27177;22.262;114.192;2023-02-01T17:46:54;16.52;;;8.68;;
41434;SDS011;27177;22.262;114.192;2023-02-01T17:49:22;16.70;;;9.95;;
41434;SDS011;27177;22.262;114.192;2023-02-01T17:51:49;15.25;;;8.90;;
41434;SDS011;27177;22.262;114.192;2023-02-01T17:54:16;16.83;;;9.25;;
41434;SDS011;27177;22.262;114.192;2023-02-01T17:56:44;18.42;;;9.48;;
41434;SDS011;27177;22.262;114.192;2023-02-01T17:59:14;17.65;;;8.77;;
41434;SDS011;27177;22.262;114.192;2023-02-01T18:01:42;17.60;;;8.93;;
41434;SDS011;27177;22.262;114.192;2023-02-01T18:04:10;18.73;;;8.82;;
41434;SDS011;27177;22.262;114.192;2023-02-01T18:06:38;16.90;;;9.13;;
41434;SDS011;27177;22.262;114.192;2023-02-01T18:09:04;15.40;;;8.65;;
41434;SDS011;27177;22.262;114.192;2023-02-01T18:11:31;21.10;;;9.30;;
41434;SDS011;27177;22.262;114.192;2023-02-01T18:13:58;13.73;;;10.20;;
41434;SDS011;27177;22.262;114.192;2023-02-01T18:16:27;19.42;;;10.02;;
41434;SDS011;27177;22.262;114.192;2023-02-01T18:18:55;14.70;;;7.65;;
41434;SDS011;27177;22.262;114.192;2023-02-01T18:21:33;16.98;;;8.70;;
41434;SDS011;27177;22.262;114.192;2023-02-01T18:24:02;18.85;;;9.52;;
41434;SDS011;27177;22.262;114.192;2023-02-01T18:26:29;11.02;;;8.70;;
41434;SDS011;27177;22.262;114.192;2023-02-01T18:28:56;20.15;;;10.05;;
41434;SDS011;27177;22.262;114.192;2023-02-01T18:31:23;15.05;;;8.10;;
41434;SDS011;27177;22.262;114.192;2023-02-01T18:33:52;13.32;;;8.40;;
41434;SDS011;27177;22.262;114.192;2023-02-01T18:36:20;19.58;;;10.50;;
41434;SDS011;27177;22.262;114.192;2023-02-01T18:38:50;16.98;;;9.10;;
41434;SDS011;27177;22.262;114.192;2023-02-01T18:41:20;17.15;;;9.63;;
41434;SDS011;27177;22.262;114.192;2023-02-01T18:43:49;23.33;;;10.52;;
41434;SDS011;27177;22.262;114.192;2023-02-01T18:46:16;17.88;;;10.95;;
41434;SDS011;27177;22.262;114.192;2023-02-01T18:48:43;15.77;;;9.13;;
41434;SDS011;27177;22.262;114.192;2023-02-01T18:51:11;15.05;;;9.35;;
41434;SDS011;27177;22.262;114.192;2023-02-01T18:53:41;24.35;;;11.13;;
41434;SDS011;27177;22.262;114.192;2023-02-01T18:58:44;25.17;;;12.30;;
41434;SDS011;27177;22.262;114.192;2023-02-01T19:01:15;23.42;;;12.23;;
41434;SDS011;27177;22.262;114.192;2023-02-01T19:03:43;16.23;;;10.85;;
41434;SDS011;27177;22.262;114.192;2023-02-01T19:06:10;20.63;;;10.80;;
41434;SDS011;27177;22.262;114.192;2023-02-01T19:08:37;20.55;;;10.27;;
41434;SDS011;27177;22.262;114.192;2023-02-01T19:11:04;16.60;;;10.10;;
41434;SDS011;27177;22.262;114.192;2023-02-01T19:13:34;18.30;;;11.35;;
41434;SDS011;27177;22.262;114.192;2023-02-01T19:16:07;22.65;;;11.05;;
41434;SDS011;27177;22.262;114.192;2023-02-01T19:21:11;18.95;;;11.70;;